createdAt,value
2018-07-12T00:01:55.214Z,17.50
2018-07-12T00:04:23.219Z,17.50
2018-07-12T00:06:51.168Z,17.50
2018-07-12T00:09:19.130Z,17.50
2018-07-12T00:11:47.362Z,17.50
2018-07-12T00:14:15.306Z,17.50
2018-07-12T00:16:43.291Z,17.50
2018-07-12T00:19:11.516Z,17.50
2018-07-12T00:21:39.725Z,17.50
2018-07-12T00:24:07.691Z,17.40
2018-07-12T00:26:35.661Z,17.40
2018-07-12T00:29:03.630Z,17.40
2018-07-12T00:31:31.869Z,17.40
2018-07-12T00:33:59.846Z,17.40
2018-07-12T00:36:27.801Z,17.40
2018-07-12T00:38:55.849Z,17.30
2018-07-12T00:43:51.964Z,17.30
2018-07-12T00:46:19.934Z,17.30
2018-07-12T00:48:47.909Z,17.30
2018-07-12T00:51:15.865Z,17.30
2018-07-12T00:53:43.830Z,17.30
2018-07-12T00:56:11.777Z,17.30
2018-07-12T00:58:39.834Z,17.30
2018-07-12T01:01:07.801Z,17.30
2018-07-12T01:03:35.786Z,17.30
2018-07-12T01:06:03.773Z,17.20
2018-07-12T01:08:31.709Z,17.20
2018-07-12T01:10:59.853Z,17.20
2018-07-12T01:13:27.798Z,17.10
2018-07-12T01:15:55.760Z,17.20
2018-07-12T01:18:23.728Z,17.10
2018-07-12T01:20:52.217Z,17.10
2018-07-12T01:23:20.179Z,17.10
2018-07-12T01:28:16.455Z,17.00
2018-07-12T01:30:44.439Z,17.00
2018-07-12T01:33:12.392Z,17.00
2018-07-12T01:35:40.409Z,17.00
2018-07-12T01:38:08.380Z,17.00
2018-07-12T01:40:36.378Z,17.00
2018-07-12T01:43:04.348Z,16.90
2018-07-12T01:45:32.332Z,16.90
2018-07-12T01:48:00.905Z,16.90
2018-07-12T01:50:28.869Z,16.90
2018-07-12T01:52:57.066Z,16.80
2018-07-12T01:55:25.145Z,16.90
2018-07-12T01:57:53.239Z,16.80
2018-07-12T02:00:21.162Z,16.80
2018-07-12T02:02:49.144Z,16.70
2018-07-12T02:05:17.151Z,16.70
2018-07-12T02:07:45.179Z,16.70
2018-07-12T02:10:13.175Z,16.70
2018-07-12T02:12:41.141Z,16.80
2018-07-12T02:15:09.107Z,16.80
2018-07-12T02:17:37.073Z,16.70
2018-07-12T02:20:05.069Z,16.70
2018-07-12T02:25:01.346Z,16.70
2018-07-12T02:27:29.480Z,16.70
2018-07-12T02:29:57.398Z,16.70
2018-07-12T02:32:25.405Z,16.70
2018-07-12T02:34:53.383Z,16.60
2018-07-12T02:37:21.362Z,16.60
2018-07-12T02:39:49.343Z,16.60
2018-07-12T02:42:17.336Z,16.50
2018-07-12T02:44:45.291Z,16.40
2018-07-12T02:47:13.568Z,16.40
2018-07-12T02:49:41.526Z,16.40
2018-07-12T02:52:09.516Z,16.30
2018-07-12T02:54:37.544Z,16.30
2018-07-12T02:57:05.451Z,16.20
2018-07-12T02:59:33.422Z,16.20
2018-07-12T03:02:01.899Z,16.10
2018-07-12T03:04:30.450Z,16.00
2018-07-12T03:06:58.453Z,16.00
2018-07-12T03:09:26.406Z,15.90
2018-07-12T03:11:54.386Z,15.80
2018-07-12T03:14:23.276Z,15.80
2018-07-12T03:16:51.258Z,15.80
2018-07-12T03:19:19.226Z,15.80
2018-07-12T03:21:47.224Z,15.70
2018-07-12T03:24:15.175Z,15.70
2018-07-12T03:26:43.158Z,15.60
2018-07-12T03:31:39.234Z,15.60
2018-07-12T03:34:07.591Z,15.50
2018-07-12T03:36:35.561Z,15.50
2018-07-12T03:39:04.496Z,15.50
2018-07-12T03:41:32.620Z,15.50
2018-07-12T03:44:00.594Z,15.40
2018-07-12T03:46:28.577Z,15.40
2018-07-12T03:48:56.559Z,15.40
2018-07-12T03:51:24.521Z,15.30
2018-07-12T03:53:52.495Z,15.30
2018-07-12T03:56:20.461Z,15.30
2018-07-12T03:58:48.448Z,15.30
2018-07-12T04:01:16.407Z,15.20
2018-07-12T04:03:44.410Z,15.20
2018-07-12T04:06:12.395Z,15.20
2018-07-12T04:08:40.361Z,15.20
2018-07-12T04:11:08.330Z,15.30
2018-07-12T04:13:36.552Z,15.20
2018-07-12T04:16:04.871Z,15.20
2018-07-12T04:21:00.914Z,15.30
2018-07-12T04:23:28.888Z,15.30
2018-07-12T04:25:56.860Z,15.40
2018-07-12T04:28:24.813Z,15.40
2018-07-12T04:30:52.819Z,15.40
2018-07-12T04:35:48.854Z,15.40
2018-07-12T04:38:16.827Z,15.30
2018-07-12T04:40:44.792Z,15.30
2018-07-12T04:43:12.775Z,15.40
2018-07-12T04:45:40.765Z,15.40
2018-07-12T04:48:08.778Z,15.50
2018-07-12T04:50:36.762Z,15.60
2018-07-12T04:53:04.740Z,15.80
2018-07-12T04:55:32.698Z,16.00
2018-07-12T04:58:00.657Z,16.20
2018-07-12T05:00:28.831Z,16.50
2018-07-12T05:05:24.878Z,17.10
2018-07-12T05:07:52.903Z,17.30
2018-07-12T05:10:20.877Z,17.60
2018-07-12T05:12:48.841Z,17.70
2018-07-12T05:17:44.947Z,17.90
2018-07-12T05:20:13.117Z,17.90
2018-07-12T05:22:41.115Z,17.90
2018-07-12T05:25:09.061Z,18.00
2018-07-12T05:27:37.158Z,18.10
2018-07-12T05:30:05.260Z,18.10
2018-07-12T05:32:33.213Z,18.20
2018-07-12T05:35:01.182Z,18.40
2018-07-12T05:37:30.153Z,18.50
2018-07-12T05:39:59.168Z,18.60
2018-07-12T05:42:28.199Z,18.70
2018-07-12T05:44:57.197Z,18.80
2018-07-12T05:47:26.191Z,18.90
2018-07-12T05:49:55.142Z,19.00
2018-07-12T05:52:24.187Z,19.10
2018-07-12T05:54:53.205Z,19.10
2018-07-12T05:57:22.205Z,19.20
2018-07-12T06:02:21.667Z,19.50
2018-07-12T06:04:50.932Z,19.60
2018-07-12T06:07:25.506Z,19.70
2018-07-12T06:09:54.473Z,19.80
2018-07-12T06:12:23.493Z,20.00
2018-07-12T06:14:52.452Z,20.20
2018-07-12T06:17:21.497Z,20.30
2018-07-12T06:22:19.123Z,20.60
2018-07-12T06:24:48.206Z,20.80
2018-07-12T06:27:17.146Z,20.90
2018-07-12T06:29:46.103Z,21.00
2018-07-12T06:32:15.066Z,21.10
2018-07-12T06:34:44.113Z,21.30
2018-07-12T06:37:13.089Z,21.30
2018-07-12T06:39:42.030Z,21.50
2018-07-12T06:42:11.184Z,21.60
2018-07-12T06:44:40.183Z,21.70
2018-07-12T06:49:38.105Z,22.10
2018-07-12T06:52:07.098Z,22.20
2018-07-12T06:54:36.038Z,22.30
2018-07-12T06:57:04.985Z,22.30
2018-07-12T06:59:33.933Z,22.40
2018-07-12T07:02:02.902Z,22.40
2018-07-12T07:04:31.876Z,22.30
2018-07-12T07:07:01.119Z,22.30
2018-07-12T07:11:58.852Z,22.70
2018-07-12T07:14:27.917Z,23.10
2018-07-12T07:16:56.967Z,23.20
2018-07-12T07:19:25.971Z,23.20
2018-07-12T07:24:23.883Z,23.10
2018-07-12T07:26:52.969Z,22.80
2018-07-12T07:29:22.041Z,22.30
2018-07-12T07:34:19.689Z,22.10
2018-07-12T07:36:48.680Z,22.30
2018-07-12T07:39:17.873Z,22.40
2018-07-12T07:41:46.922Z,22.50
2018-07-12T07:44:15.961Z,22.50
2018-07-12T07:46:44.981Z,22.40
2018-07-12T07:49:13.977Z,22.30
2018-07-12T07:51:43.040Z,22.30
2018-07-12T07:54:13.101Z,22.70
2018-07-12T07:59:10.818Z,23.10
2018-07-12T08:01:39.840Z,23.00
2018-07-12T08:04:08.901Z,23.00
2018-07-12T08:06:37.892Z,23.10
2018-07-12T08:09:06.940Z,22.90
2018-07-12T08:11:35.910Z,22.70
2018-07-12T08:16:33.501Z,22.50
2018-07-12T08:19:02.702Z,22.30
2018-07-12T08:21:31.662Z,22.60
2018-07-12T08:24:00.614Z,22.90
2018-07-12T08:26:29.586Z,23.30
2018-07-12T08:28:58.601Z,23.70
2018-07-12T08:31:27.655Z,24.00
2018-07-12T08:33:56.723Z,24.00
2018-07-12T08:36:25.859Z,24.00
2018-07-12T08:38:54.911Z,23.90
2018-07-12T08:41:23.962Z,23.70
2018-07-12T08:43:53.094Z,23.40
2018-07-12T08:46:22.148Z,23.20
2018-07-12T08:48:51.112Z,23.00
2018-07-12T08:51:20.061Z,23.10
2018-07-12T08:53:49.338Z,23.30
2018-07-12T08:56:18.461Z,23.30
2018-07-12T08:58:47.433Z,23.30
2018-07-12T09:01:16.410Z,23.20
2018-07-12T09:03:45.412Z,23.10
2018-07-12T09:06:14.435Z,23.10
2018-07-12T09:08:43.405Z,22.90
2018-07-12T09:11:12.394Z,23.00
2018-07-12T09:16:10.136Z,23.10
2018-07-12T09:18:39.113Z,23.20
2018-07-12T09:21:08.175Z,23.40
2018-07-12T09:23:37.223Z,23.40
2018-07-12T09:26:06.249Z,23.40
2018-07-12T09:28:35.457Z,23.40
2018-07-12T09:31:04.441Z,23.50
2018-07-12T09:33:33.391Z,23.60
2018-07-12T09:36:02.344Z,23.60
2018-07-12T09:38:45.198Z,23.60
2018-07-12T09:41:14.254Z,23.60
2018-07-12T09:43:44.070Z,23.70
2018-07-12T09:46:13.202Z,23.80
2018-07-12T09:48:43.368Z,23.60
2018-07-12T09:53:42.962Z,23.90
2018-07-12T09:56:12.470Z,24.30
2018-07-12T09:58:41.742Z,24.70
2018-07-12T10:01:16.323Z,24.90
2018-07-12T10:03:45.998Z,25.10
2018-07-12T10:06:20.318Z,25.30
2018-07-12T10:08:54.788Z,25.60
2018-07-12T10:11:29.404Z,25.80
2018-07-12T10:14:02.685Z,25.90
2018-07-12T10:16:37.292Z,26.10
2018-07-12T10:19:06.245Z,26.10
2018-07-12T10:21:35.250Z,26.30
2018-07-12T10:24:04.257Z,26.50
2018-07-12T10:26:33.204Z,26.50
2018-07-12T10:29:02.218Z,26.40
2018-07-12T10:31:31.267Z,26.30
2018-07-12T10:34:00.293Z,26.50
2018-07-12T10:36:29.313Z,26.50
2018-07-12T10:38:58.306Z,26.70
2018-07-12T10:41:27.277Z,26.90
2018-07-12T10:43:56.261Z,27.00
2018-07-12T10:46:25.316Z,26.90
2018-07-12T10:48:54.339Z,26.80
2018-07-12T10:51:23.318Z,26.90
2018-07-12T10:53:52.341Z,27.00
2018-07-12T10:56:21.334Z,27.20
2018-07-12T10:58:50.500Z,27.60
2018-07-12T11:01:19.699Z,27.80
2018-07-12T11:03:48.657Z,28.00
2018-07-12T11:06:17.684Z,28.20
2018-07-12T11:08:46.692Z,28.20
2018-07-12T11:11:15.705Z,28.40
2018-07-12T11:13:52.049Z,28.50
2018-07-12T11:16:21.096Z,28.80
2018-07-12T11:18:50.162Z,28.90
2018-07-12T11:21:19.126Z,28.80
2018-07-12T11:23:48.090Z,28.80
2018-07-12T11:26:17.189Z,28.80
2018-07-12T11:28:46.221Z,28.70
2018-07-12T11:31:15.216Z,28.90
2018-07-12T11:33:46.440Z,28.90
2018-07-12T11:36:15.449Z,29.20
2018-07-12T11:38:44.983Z,29.40
2018-07-12T11:41:14.593Z,29.40
2018-07-12T11:43:43.827Z,29.60
2018-07-12T11:46:14.050Z,29.50
2018-07-12T11:48:43.653Z,29.40
2018-07-12T11:51:12.730Z,29.40
2018-07-12T11:53:41.832Z,29.30
2018-07-12T11:56:10.936Z,29.50
2018-07-12T11:58:39.971Z,29.70
2018-07-12T12:03:37.566Z,29.60
2018-07-12T12:06:06.857Z,29.80
2018-07-12T12:08:35.905Z,30.10
2018-07-12T12:11:04.910Z,30.30
2018-07-12T12:13:34.132Z,30.20
2018-07-12T12:16:03.198Z,30.10
2018-07-12T12:18:32.144Z,30.10
2018-07-12T12:21:01.307Z,30.00
2018-07-12T12:23:30.662Z,30.00
2018-07-12T12:26:00.250Z,30.00
2018-07-12T12:28:29.545Z,30.20
2018-07-12T12:30:58.838Z,30.50
2018-07-12T12:33:28.065Z,31.00
2018-07-12T12:35:57.193Z,31.10
2018-07-12T12:38:26.165Z,31.30
2018-07-12T12:40:55.205Z,31.40
2018-07-12T12:43:24.225Z,31.70
2018-07-12T12:45:53.301Z,31.80
2018-07-12T12:48:22.354Z,31.40
2018-07-12T12:50:51.356Z,31.20
2018-07-12T12:53:20.317Z,31.30
2018-07-12T12:55:49.281Z,31.40
2018-07-12T12:58:18.790Z,31.70
2018-07-12T13:00:47.885Z,32.00
2018-07-12T13:03:16.826Z,32.10
2018-07-12T13:05:45.795Z,32.10
2018-07-12T13:08:14.762Z,32.20
2018-07-12T13:10:43.741Z,32.40
2018-07-12T13:13:12.715Z,32.70
2018-07-12T13:15:41.759Z,32.80
2018-07-12T13:18:10.949Z,32.90
2018-07-12T13:20:39.915Z,32.80
2018-07-12T13:23:08.938Z,32.90
2018-07-12T13:25:37.970Z,32.70
2018-07-12T13:28:06.893Z,32.70
2018-07-12T13:30:35.817Z,32.70
2018-07-12T13:33:04.780Z,32.50
2018-07-12T13:35:33.794Z,32.60
2018-07-12T13:38:02.726Z,32.40
2018-07-12T13:40:31.762Z,32.00
2018-07-12T13:43:00.922Z,31.30
2018-07-12T13:45:30.254Z,31.00
2018-07-12T13:47:59.194Z,31.10
2018-07-12T13:50:28.477Z,31.50
2018-07-12T13:55:26.088Z,31.30
2018-07-12T13:57:55.624Z,31.10
2018-07-12T14:00:24.597Z,31.10
2018-07-12T14:02:53.614Z,31.30
2018-07-12T14:05:22.590Z,31.60
2018-07-12T14:07:51.585Z,31.70
2018-07-12T14:10:20.767Z,31.70
2018-07-12T14:12:49.681Z,31.50
2018-07-12T14:15:18.665Z,31.00
2018-07-12T14:17:47.655Z,30.70
2018-07-12T14:20:16.636Z,30.60
2018-07-12T14:22:45.657Z,30.70
2018-07-12T14:25:14.755Z,30.70
2018-07-12T14:27:43.837Z,30.60
2018-07-12T14:30:12.787Z,30.30
2018-07-12T14:32:41.777Z,30.20
2018-07-12T14:35:10.778Z,30.20
2018-07-12T14:37:39.783Z,30.00
2018-07-12T14:40:08.942Z,30.00
2018-07-12T14:42:37.899Z,30.00
2018-07-12T14:45:06.902Z,30.00
2018-07-12T14:47:35.932Z,30.10
2018-07-12T14:50:05.603Z,30.00
2018-07-12T14:52:34.607Z,29.90
2018-07-12T14:55:04.012Z,29.80
2018-07-12T14:57:33.061Z,29.60
2018-07-12T15:00:02.085Z,29.50
2018-07-12T15:04:59.679Z,29.30
2018-07-12T15:07:28.697Z,29.20
2018-07-12T15:09:58.369Z,29.10
2018-07-12T15:12:27.321Z,29.00
2018-07-12T15:14:56.254Z,29.00
2018-07-12T15:17:25.803Z,29.00
2018-07-12T15:19:54.865Z,29.10
2018-07-12T15:22:23.865Z,29.10
2018-07-12T15:24:52.997Z,29.10
2018-07-12T15:27:21.926Z,29.10
2018-07-12T15:29:50.844Z,29.10
2018-07-12T15:32:19.796Z,28.90
2018-07-12T15:34:48.829Z,28.70
2018-07-12T15:37:17.874Z,28.70
2018-07-12T15:39:46.866Z,28.60
2018-07-12T15:44:44.794Z,28.40
2018-07-12T15:47:13.809Z,28.20
2018-07-12T15:52:11.467Z,27.70
2018-07-12T15:54:40.463Z,27.50
2018-07-12T15:57:10.209Z,27.30
2018-07-12T15:59:40.228Z,27.00
2018-07-12T16:02:10.308Z,26.80
2018-07-12T16:04:39.417Z,26.60
2018-07-12T16:07:08.373Z,26.10
2018-07-12T16:09:37.415Z,25.60
2018-07-12T16:12:07.018Z,25.10
2018-07-12T16:14:36.690Z,24.50
2018-07-12T16:17:06.324Z,24.10
2018-07-12T16:19:35.325Z,23.80
2018-07-12T16:22:04.670Z,23.50
2018-07-12T16:24:33.609Z,23.10
2018-07-12T16:27:02.641Z,22.80
2018-07-12T16:29:31.608Z,22.50
2018-07-12T16:32:00.566Z,22.20
2018-07-12T16:34:29.561Z,21.80
2018-07-12T16:36:58.524Z,21.60
2018-07-12T16:39:27.562Z,21.50
2018-07-12T16:41:56.689Z,21.30
2018-07-12T16:44:25.625Z,21.20
2018-07-12T16:46:54.653Z,21.10
2018-07-12T16:49:23.738Z,21.10
2018-07-12T16:51:52.905Z,21.00
2018-07-12T16:54:22.024Z,21.10
2018-07-12T16:56:51.264Z,21.20
2018-07-12T16:59:20.241Z,21.20
2018-07-12T17:01:49.563Z,21.20
2018-07-12T17:04:18.925Z,21.30
2018-07-12T17:09:17.198Z,21.30
2018-07-12T17:11:47.252Z,21.40
2018-07-12T17:16:45.098Z,21.50
2018-07-12T17:19:14.173Z,21.40
2018-07-12T17:21:43.173Z,21.50
2018-07-12T17:24:12.161Z,21.60
2018-07-12T17:29:09.828Z,21.60
2018-07-12T17:31:38.827Z,21.50
2018-07-12T17:34:07.808Z,21.40
2018-07-12T17:36:36.814Z,21.40
2018-07-12T17:39:06.782Z,21.40
2018-07-12T17:41:35.796Z,21.30
2018-07-12T17:44:04.953Z,21.20
2018-07-12T17:46:35.306Z,21.20
2018-07-12T17:49:05.085Z,21.30
2018-07-12T17:51:34.122Z,21.20
2018-07-12T17:54:03.480Z,21.20
2018-07-12T17:56:33.136Z,21.20
2018-07-12T17:59:02.180Z,21.20
2018-07-12T18:01:31.133Z,21.30
2018-07-12T18:04:00.214Z,21.20
2018-07-12T18:06:29.170Z,21.20
2018-07-12T18:08:58.204Z,21.20
2018-07-12T18:11:27.171Z,21.10
2018-07-12T18:13:56.229Z,21.10
2018-07-12T18:16:25.411Z,21.20
2018-07-12T18:18:54.439Z,21.30
2018-07-12T18:21:23.511Z,21.40
2018-07-12T18:23:52.545Z,21.50
2018-07-12T18:26:21.542Z,21.70
2018-07-12T18:28:50.505Z,21.80
2018-07-12T18:34:34.795Z,22.10
2018-07-12T18:37:04.178Z,22.30
2018-07-12T18:39:33.199Z,22.50
2018-07-12T18:42:02.185Z,22.50
2018-07-12T18:44:31.139Z,22.60
2018-07-12T18:47:00.082Z,22.50
2018-07-12T18:49:29.016Z,22.50
2018-07-12T18:51:57.961Z,22.40
2018-07-12T18:56:55.710Z,22.10
2018-07-12T18:59:24.684Z,22.10
2018-07-12T19:01:53.715Z,21.90
2018-07-12T19:04:22.652Z,21.70
2018-07-12T19:06:51.677Z,21.60
2018-07-12T19:09:20.641Z,21.40
2018-07-12T19:11:49.767Z,21.20
2018-07-12T19:14:18.707Z,21.10
2018-07-12T19:16:47.684Z,21.00
2018-07-12T19:19:16.994Z,20.90
2018-07-12T19:21:45.925Z,20.90
2018-07-12T19:24:14.886Z,20.60
2018-07-12T19:26:43.826Z,20.50
2018-07-12T19:29:13.027Z,20.40
2018-07-12T19:31:41.988Z,20.30
2018-07-12T19:34:10.955Z,20.20
2018-07-12T19:36:39.902Z,20.00
2018-07-12T19:39:09.352Z,19.90
2018-07-12T19:41:38.331Z,19.80
2018-07-12T19:44:07.653Z,19.70
2018-07-12T19:46:37.056Z,19.70
2018-07-12T19:49:06.164Z,19.50
2018-07-12T19:51:35.170Z,19.40
2018-07-12T19:54:04.158Z,19.30
2018-07-12T19:56:33.126Z,19.20
2018-07-12T19:59:02.218Z,19.20
2018-07-12T20:01:31.180Z,19.10
2018-07-12T20:04:00.156Z,19.00
2018-07-12T20:06:29.108Z,19.00
2018-07-12T20:08:58.050Z,19.00
2018-07-12T20:13:55.707Z,18.80
2018-07-12T20:16:24.648Z,18.80
2018-07-12T20:18:53.623Z,18.70
2018-07-12T20:21:23.000Z,18.70
2018-07-12T20:23:51.952Z,18.60
2018-07-12T20:26:21.069Z,18.50
2018-07-12T20:28:49.963Z,18.50
2018-07-12T20:31:18.979Z,18.50
2018-07-12T20:33:47.946Z,18.50
2018-07-12T20:36:16.909Z,18.30
2018-07-12T20:38:45.877Z,18.30
2018-07-12T20:41:14.920Z,18.20
2018-07-12T20:43:43.911Z,18.20
2018-07-12T20:46:12.878Z,18.20
2018-07-12T20:48:41.813Z,18.10
2018-07-12T20:51:10.774Z,18.10
2018-07-12T20:53:39.725Z,18.20
2018-07-12T20:56:08.683Z,18.10
2018-07-12T20:58:37.654Z,18.20
2018-07-12T21:01:06.898Z,18.20
2018-07-12T21:03:35.833Z,18.20
2018-07-12T21:06:05.204Z,18.20
2018-07-12T21:08:34.186Z,18.20
2018-07-12T21:11:03.150Z,18.30
2018-07-12T21:13:32.513Z,18.30
2018-07-12T21:16:01.492Z,18.20
2018-07-12T21:18:30.517Z,18.10
2018-07-12T21:20:59.489Z,18.00
2018-07-12T21:23:28.440Z,17.90
2018-07-12T21:25:57.416Z,17.90
2018-07-12T21:28:26.354Z,17.70
2018-07-12T21:30:55.304Z,17.60
2018-07-12T21:33:24.369Z,17.60
2018-07-12T21:35:53.366Z,17.50
2018-07-12T21:38:22.330Z,17.40
2018-07-12T21:40:51.313Z,17.50
2018-07-12T21:43:20.546Z,17.50
2018-07-12T21:48:18.383Z,17.50
2018-07-12T21:50:47.344Z,17.60
2018-07-12T21:53:16.301Z,17.50
2018-07-12T21:55:45.370Z,17.50
2018-07-12T21:58:14.322Z,17.50
2018-07-12T22:00:43.255Z,17.40
2018-07-12T22:03:12.270Z,17.30
2018-07-12T22:05:41.211Z,17.30
2018-07-12T22:08:13.382Z,17.30
2018-07-12T22:10:43.288Z,17.30
2018-07-12T22:13:13.084Z,17.30
2018-07-12T22:15:42.101Z,17.30
2018-07-12T22:18:11.386Z,17.30
2018-07-12T22:20:40.566Z,17.30
2018-07-12T22:23:09.569Z,17.30
2018-07-12T22:25:38.609Z,17.30
2018-07-12T22:28:08.221Z,17.30
2018-07-12T22:30:37.321Z,17.20
2018-07-12T22:38:03.938Z,17.20
2018-07-12T22:40:33.125Z,17.20
2018-07-12T22:43:02.190Z,17.20
2018-07-12T22:45:31.168Z,17.20
2018-07-12T22:48:00.130Z,17.20
2018-07-12T22:50:29.061Z,17.10
2018-07-12T22:52:58.323Z,17.10
2018-07-12T22:55:27.302Z,17.10
2018-07-12T22:57:56.434Z,17.10
2018-07-12T23:00:25.420Z,17.00
2018-07-12T23:02:54.395Z,17.00
2018-07-12T23:05:23.341Z,17.00
2018-07-12T23:07:52.427Z,17.00
2018-07-12T23:10:21.738Z,17.00
2018-07-12T23:12:50.762Z,16.90
2018-07-12T23:15:19.707Z,16.90
2018-07-12T23:17:48.686Z,16.90
2018-07-12T23:20:17.626Z,16.90
2018-07-12T23:22:47.585Z,16.90
2018-07-12T23:25:16.541Z,16.90
2018-07-12T23:27:45.497Z,16.80
2018-07-12T23:30:14.473Z,16.80
2018-07-12T23:32:43.478Z,16.70
2018-07-12T23:35:12.405Z,16.80
2018-07-12T23:37:41.402Z,16.70
2018-07-12T23:40:10.363Z,16.70
2018-07-12T23:42:39.313Z,16.70
2018-07-12T23:45:08.402Z,16.60
2018-07-12T23:47:37.425Z,16.50
2018-07-12T23:50:06.415Z,16.50
2018-07-12T23:52:35.517Z,16.50
2018-07-12T23:55:04.511Z,16.40
2018-07-12T23:57:33.474Z,16.40
